createdAt,value
2022-08-03T00:00:08.815Z,100752.81
2022-08-03T00:10:15.497Z,100745.13
2022-08-03T00:20:18.495Z,100758.16
2022-08-03T00:30:21.612Z,100742.44
2022-08-03T00:40:24.624Z,100750.34
2022-08-03T00:50:29.476Z,100762.28
2022-08-03T01:00:36.055Z,100748.69
2022-08-03T01:10:50.193Z,100762.47
2022-08-03T01:20:56.687Z,100765.25
2022-08-03T01:31:08.334Z,100762.72
2022-08-03T01:41:19.258Z,100767.59
2022-08-03T01:51:24.462Z,100765.28
2022-08-03T02:02:27.910Z,100756.25
2022-08-03T02:12:17.218Z,100749.97
2022-08-03T02:22:23.412Z,100746.72
2022-08-03T02:32:37.169Z,100753.62
2022-08-03T02:42:44.834Z,100756.81
2022-08-03T02:52:51.497Z,100750.16
2022-08-03T03:03:02.062Z,100757.16
2022-08-03T03:13:07.664Z,100764.03
2022-08-03T03:23:11.718Z,100762.41
2022-08-03T03:33:15.303Z,100763.13
2022-08-03T03:44:27.917Z,100771.06
2022-08-03T03:54:43.786Z,100777.00
2022-08-03T04:05:05.468Z,100775.06
2022-08-03T04:15:09.842Z,100784.06
2022-08-03T04:25:18.293Z,100793.28
2022-08-03T04:35:23.540Z,100802.09
2022-08-03T04:45:47.973Z,100808.44
2022-08-03T04:55:51.159Z,100802.81
2022-08-03T05:06:09.822Z,100812.00
2022-08-03T05:16:15.399Z,100807.84
2022-08-03T05:26:18.377Z,100821.41
2022-08-03T05:48:12.264Z,100837.81
2022-08-03T05:58:15.284Z,100844.69
2022-08-03T06:08:19.399Z,100852.62
2022-08-03T06:18:23.368Z,100858.72
2022-08-03T06:38:49.300Z,100868.41
2022-08-03T06:48:52.540Z,100859.38
2022-08-03T06:58:55.628Z,100863.16
2022-08-03T07:08:59.858Z,100868.50
2022-08-03T07:19:03.080Z,100867.44
2022-08-03T07:29:11.470Z,100862.78
2022-08-03T07:39:18.474Z,100863.13
2022-08-03T07:49:21.472Z,100860.87
2022-08-03T07:59:24.816Z,100871.03
2022-08-03T08:09:27.887Z,100867.00
2022-08-03T08:19:32.029Z,100869.66
2022-08-03T08:29:55.354Z,100862.09
2022-08-03T08:40:00.148Z,100867.31
2022-08-03T08:50:10.243Z,100880.50
2022-08-03T09:00:26.969Z,100867.97
2022-08-03T09:10:30.014Z,100858.59
2022-08-03T09:20:34.830Z,100854.66
2022-08-03T09:30:43.021Z,100858.09
2022-08-03T09:40:46.823Z,100848.25
2022-08-03T09:52:11.037Z,100839.03
2022-08-03T10:01:33.825Z,100840.44
2022-08-03T10:11:41.735Z,100837.47
2022-08-03T10:21:54.310Z,100822.31
2022-08-03T10:31:59.084Z,100811.50
2022-08-03T10:42:03.733Z,100805.47
2022-08-03T10:52:13.673Z,100799.34
2022-08-03T11:03:06.388Z,100791.09
2022-08-03T11:13:11.079Z,100784.19
2022-08-03T11:24:05.649Z,100775.63
2022-08-03T11:34:09.618Z,100757.78
2022-08-03T11:44:41.479Z,100757.72
2022-08-03T11:54:56.626Z,100749.53
2022-08-03T12:05:01.647Z,100738.09
2022-08-03T12:15:05.972Z,100725.00
2022-08-03T12:25:39.038Z,100719.84
2022-08-03T12:35:52.248Z,100709.78
2022-08-03T12:46:08.321Z,100702.28
2022-08-03T12:56:11.763Z,100688.53
2022-08-03T13:06:17.249Z,100686.19
2022-08-03T13:16:23.378Z,100684.47
2022-08-03T13:26:26.314Z,100667.19
2022-08-03T13:36:30.017Z,100669.09
2022-08-03T13:46:46.950Z,100660.84
2022-08-03T13:56:53.026Z,100661.25
2022-08-03T14:06:56.208Z,100654.47
2022-08-03T14:16:59.453Z,100657.75
2022-08-03T14:27:09.013Z,100644.84
2022-08-03T14:37:19.709Z,100636.31
2022-08-03T14:47:22.976Z,100620.56
2022-08-03T14:57:28.396Z,100620.75
2022-08-03T15:07:32.869Z,100622.03
2022-08-03T15:17:36.268Z,100616.59
2022-08-03T15:28:04.184Z,100611.00
2022-08-03T15:38:09.981Z,100604.88
2022-08-03T15:48:13.049Z,100599.37
2022-08-03T15:59:03.156Z,100592.94
2022-08-03T16:08:39.024Z,100584.12
2022-08-03T16:18:42.715Z,100579.16
2022-08-03T16:28:45.671Z,100577.94
2022-08-03T16:38:48.781Z,100564.56
2022-08-03T16:48:52.136Z,100568.16
2022-08-03T16:58:55.049Z,100569.31
2022-08-03T17:08:59.711Z,100585.69
2022-08-03T17:19:05.674Z,100590.94
2022-08-03T17:29:12.768Z,100593.84
2022-08-03T17:39:23.565Z,100608.34
2022-08-03T17:49:39.980Z,100612.97
2022-08-03T18:00:24.138Z,100620.56
2022-08-03T18:10:34.109Z,100627.09
2022-08-03T18:20:41.599Z,100633.91
2022-08-03T18:30:53.358Z,100646.00
2022-08-03T18:40:57.773Z,100652.88
2022-08-03T18:51:28.590Z,100661.72
2022-08-03T19:01:58.591Z,100675.41
2022-08-03T19:12:30.708Z,100682.16
2022-08-03T19:22:37.309Z,100673.97
2022-08-03T19:32:41.811Z,100683.78
2022-08-03T19:42:58.500Z,100695.88
2022-08-03T19:53:10.215Z,100704.06
2022-08-03T20:03:21.740Z,100721.66
2022-08-03T20:13:28.368Z,100719.72
2022-08-03T20:23:37.258Z,100716.62
2022-08-03T20:33:46.187Z,100717.72
2022-08-03T20:43:52.246Z,100725.81
2022-08-03T20:53:59.854Z,100724.34
2022-08-03T21:04:09.267Z,100728.75
2022-08-03T21:14:20.244Z,100741.63
2022-08-03T21:24:27.177Z,100735.59
2022-08-03T21:34:30.779Z,100737.97
2022-08-03T21:44:33.751Z,100737.28
2022-08-03T21:54:41.057Z,100751.34
2022-08-03T22:04:53.332Z,100754.53
2022-08-03T22:15:02.159Z,100750.16
2022-08-03T22:25:10.644Z,100756.66
2022-08-03T22:35:14.547Z,100757.62
2022-08-03T22:46:05.992Z,100761.97
2022-08-03T22:55:40.918Z,100770.66
2022-08-03T23:06:01.154Z,100777.31
2022-08-03T23:16:06.988Z,100775.09
2022-08-03T23:26:09.909Z,100765.66
2022-08-03T23:36:31.227Z,100768.16
2022-08-03T23:46:37.391Z,100759.44
2022-08-03T23:56:54.035Z,100755.59
